Time,TemperatureF,DewpointF,PressureIn,WindDirection,WindDirectionDegrees,WindSpeedMPH,WindSpeedGustMPH,Humidity,HourlyPrecipIn,Conditions,Clouds,dailyrainin,SoftwareType,DateUTC
2013-06-09 00:02:00,58.6,36.8,0.00,ESE,110,5.4,5.4,44,0.00,,,0.00,VWS V13.01,2013-06-09 05:02:00,
2013-06-09 00:07:00,58.3,37.0,0.00,ESE,113,5.4,5.8,45,0.00,,,0.00,VWS V13.01,2013-06-09 05:07:00,
2013-06-09 00:12:00,58.1,37.5,0.00,ESE,111,5.8,5.8,46,0.00,,,0.00,VWS V13.01,2013-06-09 05:12:00,
2013-06-09 00:17:00,58.1,38.0,0.00,ESE,107,5.4,5.8,47,0.00,,,0.00,VWS V13.01,2013-06-09 05:17:00,
2013-06-09 00:22:00,57.9,37.3,0.00,SE,131,8.3,8.3,46,0.00,,,0.00,VWS V13.01,2013-06-09 05:22:00,
2013-06-09 00:27:00,57.9,37.3,0.00,ESE,112,5.4,6.7,46,0.00,,,0.00,VWS V13.01,2013-06-09 05:27:00,
2013-06-09 00:32:00,57.9,36.7,0.00,ESE,108,5.8,5.8,45,0.00,,,0.00,VWS V13.01,2013-06-09 05:32:00,
2013-06-09 00:37:00,57.7,36.6,0.00,SE,136,8.3,8.3,45,0.00,,,0.00,VWS V13.01,2013-06-09 05:37:00,
2013-06-09 00:42:00,57.7,36.6,0.00,ESE,117,6.3,6.7,45,0.00,,,0.00,VWS V13.01,2013-06-09 05:42:00,
2013-06-09 00:47:00,57.7,37.1,0.00,ESE,118,6.7,6.7,46,0.00,,,0.00,VWS V13.01,2013-06-09 05:47:00,
2013-06-09 00:52:00,57.7,36.6,0.00,ESE,106,6.3,7.2,45,0.00,,,0.00,VWS V13.01,2013-06-09 05:52:00,
2013-06-09 00:57:00,57.6,37.0,0.00,East,100,6.7,6.7,46,0.00,,,0.00,VWS V13.01,2013-06-09 05:57:00,
2013-06-09 01:02:00,57.6,36.4,0.00,ESE,112,5.8,5.8,45,0.00,,,0.00,VWS V13.01,2013-06-09 06:02:00,
2013-06-09 01:07:00,57.7,35.4,0.00,SE,135,7.6,8.1,43,0.00,,,0.00,VWS V13.01,2013-06-09 06:07:00,
2013-06-09 01:12:00,57.9,36.7,0.00,ESE,123,6.3,8.1,45,0.00,,,0.00,VWS V13.01,2013-06-09 06:12:00,
2013-06-09 01:17:00,57.9,36.7,0.00,ESE,122,8.3,8.3,45,0.00,,,0.00,VWS V13.01,2013-06-09 06:17:00,
2013-06-09 01:22:00,58.1,36.3,0.00,SE,125,7.6,9.2,44,0.00,,,0.00,VWS V13.01,2013-06-09 06:22:00,
2013-06-09 01:27:00,57.9,35.6,0.00,ESE,123,7.6,7.6,43,0.00,,,0.00,VWS V13.01,2013-06-09 06:27:00,
2013-06-09 01:32:00,58.1,37.5,0.00,SE,128,6.3,8.3,46,0.00,,,0.00,VWS V13.01,2013-06-09 06:32:00,
2013-06-09 01:37:00,58.1,36.9,0.00,ESE,121,6.3,6.3,45,0.00,,,0.00,VWS V13.01,2013-06-09 06:37:00,
2013-06-09 01:42:00,58.1,36.9,0.00,SE,128,5.4,8.3,45,0.00,,,0.00,VWS V13.01,2013-06-09 06:42:00,
2013-06-09 01:47:00,58.1,36.9,0.00,SE,129,7.6,7.6,45,0.00,,,0.00,VWS V13.01,2013-06-09 06:47:00,
2013-06-09 01:52:00,58.1,36.9,0.00,ESE,118,6.3,6.3,45,0.00,,,0.00,VWS V13.01,2013-06-09 06:52:00,
2013-06-09 01:57:00,58.1,36.3,0.00,ESE,123,5.8,6.3,44,0.00,,,0.00,VWS V13.01,2013-06-09 06:57:00,
2013-06-09 02:02:00,58.1,36.9,0.00,ESE,113,4.9,5.4,45,0.00,,,0.00,VWS V13.01,2013-06-09 07:02:00,
2013-06-09 02:07:00,58.1,37.5,0.00,ESE,109,4.9,6.3,46,0.00,,,0.00,VWS V13.01,2013-06-09 07:07:00,
2013-06-09 02:12:00,58.1,38.0,0.00,ESE,115,5.4,5.4,47,0.00,,,0.00,VWS V13.01,2013-06-09 07:12:00,
2013-06-09 02:17:00,57.9,37.3,0.00,ESE,102,4.9,5.4,46,0.00,,,0.00,VWS V13.01,2013-06-09 07:17:00,
2013-06-09 02:22:00,57.7,37.7,0.00,ESE,109,4.0,4.0,47,0.00,,,0.00,VWS V13.01,2013-06-09 07:22:00,
2013-06-09 02:27:00,57.7,38.2,0.00,ESE,115,4.9,5.4,48,0.00,,,0.00,VWS V13.01,2013-06-09 07:27:00,
2013-06-09 02:32:00,57.6,38.0,0.00,ESE,110,3.1,4.9,48,0.00,,,0.00,VWS V13.01,2013-06-09 07:32:00,
2013-06-09 02:37:00,57.4,37.9,0.00,ESE,109,4.0,4.0,48,0.00,,,0.00,VWS V13.01,2013-06-09 07:37:00,
2013-06-09 02:42:00,57.4,38.4,0.00,ESE,116,5.4,6.3,49,0.00,,,0.00,VWS V13.01,2013-06-09 07:42:00,
2013-06-09 02:47:00,57.4,38.4,0.00,ESE,107,5.4,5.4,49,0.00,,,0.00,VWS V13.01,2013-06-09 07:47:00,
2013-06-09 02:52:00,57.4,37.9,0.00,ESE,108,5.4,5.8,48,0.00,,,0.00,VWS V13.01,2013-06-09 07:52:00,
2013-06-09 02:57:00,57.4,38.4,0.00,ESE,112,5.4,6.3,49,0.00,,,0.00,VWS V13.01,2013-06-09 07:57:00,
2013-06-09 03:02:00,57.6,38.6,0.00,ESE,106,4.0,6.3,49,0.00,,,0.00,VWS V13.01,2013-06-09 08:02:00,
2013-06-09 03:07:00,57.6,38.0,0.00,ESE,110,5.8,5.8,48,0.00,,,0.00,VWS V13.01,2013-06-09 08:07:00,
2013-06-09 03:12:00,57.7,38.7,0.00,ESE,115,5.8,5.8,49,0.00,,,0.00,VWS V13.01,2013-06-09 08:12:00,
2013-06-09 03:17:00,57.9,38.9,0.00,ESE,110,5.4,8.7,49,0.00,,,0.00,VWS V13.01,2013-06-09 08:17:00,
2013-06-09 03:22:00,57.9,38.9,0.00,ESE,111,6.3,6.3,49,0.00,,,0.00,VWS V13.01,2013-06-09 08:22:00,
2013-06-09 03:27:00,57.7,38.7,0.00,ESE,108,7.6,7.6,49,0.00,,,0.00,VWS V13.01,2013-06-09 08:27:00,
2013-06-09 03:32:00,57.7,38.2,0.00,ESE,109,8.3,8.3,48,0.00,,,0.00,VWS V13.01,2013-06-09 08:32:00,
2013-06-09 03:37:00,58.1,39.1,0.00,ESE,119,5.4,6.3,49,0.00,,,0.00,VWS V13.01,2013-06-09 08:37:00,
2013-06-09 03:42:00,58.3,39.2,0.00,ESE,106,8.1,8.7,49,0.00,,,0.00,VWS V13.01,2013-06-09 08:42:00,
2013-06-09 03:47:00,58.3,38.7,0.00,ESE,120,8.3,8.3,48,0.00,,,0.00,VWS V13.01,2013-06-09 08:47:00,
2013-06-09 03:52:00,58.5,37.8,0.00,SE,130,5.8,7.6,46,0.00,,,0.00,VWS V13.01,2013-06-09 08:52:00,
2013-06-09 03:57:00,58.5,38.3,0.00,SE,130,6.3,6.3,47,0.00,,,0.00,VWS V13.01,2013-06-09 08:57:00,
2013-06-09 04:02:00,58.6,37.9,0.00,ESE,121,6.3,6.3,46,0.00,,,0.00,VWS V13.01,2013-06-09 09:02:00,
2013-06-09 04:07:00,58.6,37.9,0.00,SSE,159,6.3,6.7,46,0.00,,,0.00,VWS V13.01,2013-06-09 09:07:00,
2013-06-09 04:12:00,58.6,37.9,0.00,ESE,122,7.6,7.6,46,0.00,,,0.00,VWS V13.01,2013-06-09 09:12:00,
2013-06-09 04:17:00,58.8,37.5,0.00,SSE,159,8.1,8.1,45,0.00,,,0.00,VWS V13.01,2013-06-09 09:17:00,
2013-06-09 04:22:00,58.8,37.0,0.00,SE,138,7.6,7.6,44,0.00,,,0.00,VWS V13.01,2013-06-09 09:22:00,
2013-06-09 04:27:00,59.0,37.1,0.00,ESE,114,6.3,8.1,44,0.00,,,0.00,VWS V13.01,2013-06-09 09:27:00,
2013-06-09 04:32:00,59.2,37.3,0.00,SE,130,8.1,8.7,44,0.00,,,0.00,VWS V13.01,2013-06-09 09:32:00,
2013-06-09 04:37:00,59.2,36.7,0.00,SE,138,5.8,5.8,43,0.00,,,0.00,VWS V13.01,2013-06-09 09:37:00,
2013-06-09 04:42:00,59.2,35.5,0.00,SSE,161,7.6,7.6,41,0.00,,,0.00,VWS V13.01,2013-06-09 09:42:00,
2013-06-09 04:47:00,59.2,35.5,0.00,SE,139,10.1,10.1,41,0.00,,,0.00,VWS V13.01,2013-06-09 09:47:00,
2013-06-09 04:52:00,59.2,34.9,0.00,SE,133,8.7,11.0,40,0.00,,,0.00,VWS V13.01,2013-06-09 09:52:00,
2013-06-09 04:57:00,59.2,35.5,0.00,ESE,123,7.6,8.1,41,0.00,,,0.00,VWS V13.01,2013-06-09 09:57:00,
2013-06-09 05:02:00,59.2,36.1,0.00,SSE,148,8.3,8.7,42,0.00,,,0.00,VWS V13.01,2013-06-09 10:02:00,
2013-06-09 05:07:00,59.2,35.5,0.00,ESE,122,10.1,10.1,41,0.00,,,0.00,VWS V13.01,2013-06-09 10:07:00,
2013-06-09 05:12:00,59.0,35.3,0.00,SSE,164,8.3,10.5,41,0.00,,,0.00,VWS V13.01,2013-06-09 10:12:00,
2013-06-09 05:17:00,59.2,35.5,0.00,SE,129,13.2,13.2,41,0.00,,,0.00,VWS V13.01,2013-06-09 10:17:00,
2013-06-09 05:22:00,58.8,37.5,0.00,SE,135,10.1,11.0,45,0.00,,,0.00,VWS V13.01,2013-06-09 10:22:00,
2013-06-09 05:27:00,58.5,37.2,0.00,SSE,163,8.3,8.3,45,0.00,,,0.00,VWS V13.01,2013-06-09 10:27:00,
2013-06-09 05:32:00,58.3,38.2,0.00,SSE,157,8.7,8.7,47,0.00,,,0.00,VWS V13.01,2013-06-09 10:32:00,
2013-06-09 05:37:00,57.7,37.1,0.00,SSE,155,8.7,9.2,46,0.00,,,0.00,VWS V13.01,2013-06-09 10:37:00,
2013-06-09 05:42:00,57.4,36.8,0.00,SE,135,8.3,13.2,46,0.00,,,0.00,VWS V13.01,2013-06-09 10:42:00,
2013-06-09 05:47:00,57.2,37.7,0.00,SE,134,7.6,8.7,48,0.00,,,0.00,VWS V13.01,2013-06-09 10:47:00,
2013-06-09 05:52:00,57.0,38.6,0.00,SE,132,8.1,8.3,50,0.00,,,0.00,VWS V13.01,2013-06-09 10:52:00,
2013-06-09 05:57:00,56.7,38.8,0.00,SSE,159,11.9,11.9,51,0.00,,,0.00,VWS V13.01,2013-06-09 10:57:00,
2013-06-09 06:02:00,56.5,39.1,0.00,ESE,109,7.6,8.7,52,0.00,,,0.00,VWS V13.01,2013-06-09 11:02:00,
2013-06-09 06:07:00,56.3,39.4,0.00,SE,140,10.5,10.5,53,0.00,,,0.00,VWS V13.01,2013-06-09 11:07:00,
2013-06-09 06:12:00,56.3,40.8,0.00,SE,124,8.7,8.7,56,0.00,,,0.00,VWS V13.01,2013-06-09 11:12:00,
2013-06-09 06:17:00,55.9,39.5,0.00,ESE,119,7.6,10.5,54,0.00,,,0.00,VWS V13.01,2013-06-09 11:17:00,
2013-06-09 06:22:00,55.9,40.9,0.00,ESE,116,5.4,8.3,57,0.00,,,0.00,VWS V13.01,2013-06-09 11:22:00,
2013-06-09 06:27:00,55.9,41.8,0.00,SE,133,8.7,8.7,59,0.00,,,0.00,VWS V13.01,2013-06-09 11:27:00,
2013-06-09 06:32:00,55.8,41.7,0.00,ESE,119,10.5,10.5,59,0.00,,,0.00,VWS V13.01,2013-06-09 11:32:00,
2013-06-09 06:37:00,55.8,42.1,0.00,ESE,106,7.6,8.7,60,0.00,,,0.00,VWS V13.01,2013-06-09 11:37:00,
2013-06-09 06:42:00,55.4,41.8,0.00,ESE,107,8.1,12.8,60,0.00,,,0.00,VWS V13.01,2013-06-09 11:42:00,
2013-06-09 06:47:00,55.4,41.3,0.00,ESE,116,10.5,10.5,59,0.00,,,0.00,VWS V13.01,2013-06-09 11:47:00,
2013-06-09 06:52:00,55.4,42.2,0.00,ESE,106,8.7,9.6,61,0.00,,,0.00,VWS V13.01,2013-06-09 11:52:00,
2013-06-09 06:57:00,55.2,41.2,0.00,ESE,123,12.3,12.3,59,0.00,,,0.00,VWS V13.01,2013-06-09 11:57:00,
2013-06-09 07:02:00,55.4,41.3,0.00,ESE,116,7.6,8.3,59,0.00,,,0.00,VWS V13.01,2013-06-09 12:02:00,
2013-06-09 07:07:00,55.4,42.2,0.00,ESE,109,7.6,7.6,61,0.00,,,0.00,VWS V13.01,2013-06-09 12:07:00,
2013-06-09 07:12:00,55.2,42.4,0.00,ESE,108,8.1,8.1,62,0.00,,,0.00,VWS V13.01,2013-06-09 12:12:00,
2013-06-09 07:17:00,55.2,42.9,0.00,ESE,107,6.3,8.7,63,0.00,,,0.00,VWS V13.01,2013-06-09 12:17:00,
2013-06-09 07:22:00,55.0,42.7,0.00,ESE,115,10.1,10.1,63,0.00,,,0.00,VWS V13.01,2013-06-09 12:22:00,
2013-06-09 07:27:00,54.9,43.3,0.00,ESE,102,7.2,9.6,65,0.00,,,0.00,VWS V13.01,2013-06-09 12:27:00,
2013-06-09 07:32:00,55.0,44.7,0.00,ESE,102,7.2,7.6,68,0.00,,,0.00,VWS V13.01,2013-06-09 12:32:00,
2013-06-09 07:37:00,54.9,44.1,0.00,ESE,106,8.3,8.7,67,0.00,,,0.00,VWS V13.01,2013-06-09 12:37:00,
2013-06-09 07:42:00,54.9,44.5,0.00,ESE,108,8.1,8.7,68,0.04,,,0.04,VWS V13.01,2013-06-09 12:42:00,
2013-06-09 07:47:00,54.9,44.9,0.00,ESE,110,7.6,10.1,69,0.04,,,0.04,VWS V13.01,2013-06-09 12:47:00,
2013-06-09 07:52:00,54.9,44.5,0.00,ESE,105,5.8,8.3,68,0.04,,,0.04,VWS V13.01,2013-06-09 12:52:00,
2013-06-09 07:57:00,54.9,44.9,0.00,East,100,5.8,8.1,69,0.04,,,0.04,VWS V13.01,2013-06-09 12:57:00,
2013-06-09 08:02:00,54.9,45.3,0.00,ESE,112,5.4,6.3,70,0.04,,,0.04,VWS V13.01,2013-06-09 13:02:00,
2013-06-09 08:07:00,54.7,45.1,0.00,ESE,109,7.6,8.1,70,0.04,,,0.04,VWS V13.01,2013-06-09 13:07:00,
2013-06-09 08:12:00,54.9,44.9,0.00,ESE,113,8.7,8.7,69,0.04,,,0.04,VWS V13.01,2013-06-09 13:12:00,
2013-06-09 08:18:00,54.9,44.9,0.00,ESE,104,6.3,8.3,69,0.04,,,0.04,VWS V13.01,2013-06-09 13:18:00,
2013-06-09 08:22:00,54.9,44.9,0.00,ESE,108,5.4,6.3,69,0.04,,,0.04,VWS V13.01,2013-06-09 13:22:00,
2013-06-09 08:27:00,54.7,44.3,0.00,ESE,112,5.8,6.7,68,0.04,,,0.04,VWS V13.01,2013-06-09 13:27:00,
2013-06-09 08:33:00,54.7,44.3,0.00,ESE,113,4.0,4.9,68,0.04,,,0.04,VWS V13.01,2013-06-09 13:33:00,
2013-06-09 08:38:00,54.7,44.0,0.00,ESE,116,3.1,6.3,67,0.04,,,0.04,VWS V13.01,2013-06-09 13:38:00,
2013-06-09 08:43:00,54.7,44.3,0.00,ESE,110,6.3,7.6,68,0.00,,,0.04,VWS V13.01,2013-06-09 13:43:00,
2013-06-09 08:48:00,54.9,44.9,0.00,ESE,109,4.9,6.3,69,0.00,,,0.04,VWS V13.01,2013-06-09 13:48:00,
2013-06-09 08:53:00,54.7,44.7,0.00,ESE,106,2.2,5.8,69,0.00,,,0.04,VWS V13.01,2013-06-09 13:53:00,
2013-06-09 08:58:00,54.7,44.7,0.00,ESE,108,5.4,5.4,69,0.00,,,0.04,VWS V13.01,2013-06-09 13:58:00,
2013-06-09 09:03:00,54.9,44.9,0.00,ESE,123,4.0,5.8,69,0.00,,,0.04,VWS V13.01,2013-06-09 14:03:00,
2013-06-09 09:08:00,54.7,44.3,0.00,ESE,108,2.7,2.7,68,0.00,,,0.04,VWS V13.01,2013-06-09 14:08:00,
2013-06-09 09:13:00,54.7,44.3,0.00,ESE,111,2.7,2.7,68,0.00,,,0.04,VWS V13.01,2013-06-09 14:13:00,
2013-06-09 09:18:00,54.9,44.5,0.00,East,97,3.6,5.4,68,0.00,,,0.04,VWS V13.01,2013-06-09 14:18:00,
2013-06-09 09:23:00,54.9,44.5,0.00,ESE,103,4.9,5.4,68,0.00,,,0.04,VWS V13.01,2013-06-09 14:23:00,
2013-06-09 09:28:00,54.9,44.5,0.00,ENE,57,3.6,3.6,68,0.00,,,0.04,VWS V13.01,2013-06-09 14:28:00,
2013-06-09 09:33:00,54.9,44.1,0.00,East,93,0.0,3.1,67,0.00,,,0.04,VWS V13.01,2013-06-09 14:33:00,
2013-06-09 09:38:00,54.9,43.7,0.00,East,90,0.0,4.0,66,0.00,,,0.04,VWS V13.01,2013-06-09 14:38:00,
2013-06-09 09:43:00,54.9,43.7,0.00,NE,44,3.6,5.4,66,0.00,,,0.04,VWS V13.01,2013-06-09 14:43:00,
2013-06-09 09:48:00,54.9,43.3,0.00,East,81,4.0,4.0,65,0.00,,,0.04,VWS V13.01,2013-06-09 14:48:00,
2013-06-09 09:53:00,54.9,42.9,0.00,East,87,2.7,3.6,64,0.00,,,0.04,VWS V13.01,2013-06-09 14:53:00,
2013-06-09 09:58:00,54.9,42.9,0.00,ESE,112,2.2,6.3,64,0.00,,,0.04,VWS V13.01,2013-06-09 14:58:00,
2013-06-09 10:03:00,54.9,42.9,0.00,East,90,2.7,5.4,64,0.00,,,0.04,VWS V13.01,2013-06-09 15:03:00,
2013-06-09 10:08:00,54.9,43.3,0.00,East,91,4.0,4.0,65,0.00,,,0.04,VWS V13.01,2013-06-09 15:08:00,
2013-06-09 10:13:00,55.0,43.9,0.00,ESE,107,6.3,6.3,66,0.00,,,0.04,VWS V13.01,2013-06-09 15:13:00,
2013-06-09 10:18:00,55.0,43.5,0.00,East,93,3.6,3.6,65,0.00,,,0.04,VWS V13.01,2013-06-09 15:18:00,
2013-06-09 10:23:00,55.2,43.7,0.00,ESE,116,2.7,3.1,65,0.00,,,0.04,VWS V13.01,2013-06-09 15:23:00,
2013-06-09 10:28:00,55.2,43.7,0.00,East,101,0.0,0.0,65,0.00,,,0.04,VWS V13.01,2013-06-09 15:28:00,
2013-06-09 10:33:00,55.2,43.7,0.00,SE,142,4.0,4.0,65,0.00,,,0.04,VWS V13.01,2013-06-09 15:33:00,
2013-06-09 10:38:00,55.4,43.8,0.00,ESE,103,6.3,6.3,65,0.00,,,0.04,VWS V13.01,2013-06-09 15:38:00,
2013-06-09 10:43:00,55.4,43.8,0.00,ESE,120,4.0,4.9,65,0.00,,,0.04,VWS V13.01,2013-06-09 15:43:00,
2013-06-09 10:48:00,55.4,43.4,0.00,East,89,2.7,6.3,64,0.00,,,0.04,VWS V13.01,2013-06-09 15:48:00,
2013-06-09 10:53:00,55.6,43.2,0.00,East,89,2.7,6.3,63,0.00,,,0.04,VWS V13.01,2013-06-09 15:53:00,
2013-06-09 10:58:00,55.8,43.0,0.00,ESE,115,4.9,5.4,62,0.00,,,0.04,VWS V13.01,2013-06-09 15:58:00,
2013-06-09 11:03:00,55.8,42.5,0.00,ENE,70,4.9,5.4,61,0.00,,,0.04,VWS V13.01,2013-06-09 16:03:00,
2013-06-09 11:08:00,55.8,42.1,0.00,ESE,118,3.1,3.1,60,0.00,,,0.04,VWS V13.01,2013-06-09 16:08:00,
2013-06-09 11:13:00,55.8,42.1,0.00,ENE,77,0.0,0.0,60,0.00,,,0.04,VWS V13.01,2013-06-09 16:13:00,
2013-06-09 11:18:00,55.8,42.5,0.00,ESE,114,5.4,5.4,61,0.00,,,0.04,VWS V13.01,2013-06-09 16:18:00,
2013-06-09 11:23:00,55.8,42.5,0.00,ESE,113,6.7,6.7,61,0.00,,,0.04,VWS V13.01,2013-06-09 16:23:00,
2013-06-09 11:28:00,55.9,42.7,0.00,East,96,0.0,0.0,61,0.00,,,0.04,VWS V13.01,2013-06-09 16:28:00,
2013-06-09 11:33:00,55.9,42.7,0.00,ESE,105,5.4,6.3,61,0.00,,,0.04,VWS V13.01,2013-06-09 16:33:00,
2013-06-09 11:38:00,56.1,42.9,0.00,ESE,106,5.4,5.4,61,0.00,,,0.04,VWS V13.01,2013-06-09 16:38:00,
2013-06-09 11:43:00,56.3,42.6,0.00,ESE,110,5.4,5.4,60,0.00,,,0.04,VWS V13.01,2013-06-09 16:43:00,
2013-06-09 11:48:00,56.3,42.2,0.00,ESE,114,4.9,6.3,59,0.00,,,0.04,VWS V13.01,2013-06-09 16:48:00,
2013-06-09 11:53:00,56.5,42.3,0.00,ESE,116,0.0,3.1,59,0.00,,,0.04,VWS V13.01,2013-06-09 16:53:00,
2013-06-09 11:58:00,56.5,42.3,0.00,East,98,4.0,4.0,59,0.00,,,0.04,VWS V13.01,2013-06-09 16:58:00,
2013-06-09 12:03:00,56.5,41.9,0.00,NE,48,0.0,0.0,58,0.00,,,0.04,VWS V13.01,2013-06-09 17:03:00,
2013-06-09 12:08:00,56.7,42.5,0.00,East,89,4.0,4.0,59,0.00,,,0.04,VWS V13.01,2013-06-09 17:08:00,
2013-06-09 12:13:00,56.7,42.5,0.00,ENE,78,0.0,0.0,59,0.00,,,0.04,VWS V13.01,2013-06-09 17:13:00,
2013-06-09 12:18:00,56.7,43.4,0.00,ESE,110,0.0,0.0,61,0.00,,,0.04,VWS V13.01,2013-06-09 17:18:00,
2013-06-09 12:23:00,56.7,43.8,0.00,East,97,2.2,4.0,62,0.00,,,0.04,VWS V13.01,2013-06-09 17:23:00,
2013-06-09 12:28:00,56.8,44.4,0.00,ESE,105,2.7,2.7,63,0.00,,,0.04,VWS V13.01,2013-06-09 17:28:00,
2013-06-09 12:33:00,56.8,44.4,0.00,ESE,110,4.0,5.4,63,0.00,,,0.04,VWS V13.01,2013-06-09 17:33:00,
2013-06-09 12:38:00,57.0,44.6,0.00,ESE,117,5.4,5.8,63,0.00,,,0.04,VWS V13.01,2013-06-09 17:38:00,
2013-06-09 12:43:00,57.2,44.7,0.00,ESE,109,2.7,3.6,63,0.00,,,0.04,VWS V13.01,2013-06-09 17:43:00,
2013-06-09 12:48:00,57.2,44.3,0.00,ESE,107,2.7,2.7,62,0.00,,,0.04,VWS V13.01,2013-06-09 17:48:00,
2013-06-09 12:53:00,57.4,44.5,0.00,ESE,108,2.7,2.7,62,0.00,,,0.04,VWS V13.01,2013-06-09 17:53:00,
2013-06-09 12:58:00,57.6,44.7,0.00,ESE,111,3.6,4.5,62,0.00,,,0.04,VWS V13.01,2013-06-09 17:58:00,
2013-06-09 13:03:00,57.7,44.4,0.00,East,83,0.0,2.2,61,0.00,,,0.04,VWS V13.01,2013-06-09 18:03:00,
2013-06-09 13:08:00,57.7,44.4,0.00,ESE,105,4.9,4.9,61,0.00,,,0.04,VWS V13.01,2013-06-09 18:08:00,
2013-06-09 13:13:00,57.9,44.6,0.00,ESE,106,4.0,5.4,61,0.00,,,0.04,VWS V13.01,2013-06-09 18:13:00,
2013-06-09 13:18:00,57.9,44.6,0.00,ESE,119,0.0,3.6,61,0.00,,,0.04,VWS V13.01,2013-06-09 18:18:00,
2013-06-09 13:23:00,58.1,44.3,0.00,ESE,118,2.7,4.9,60,0.00,,,0.04,VWS V13.01,2013-06-09 18:23:00,
2013-06-09 13:28:00,58.1,44.3,0.00,ESE,104,2.7,4.0,60,0.00,,,0.04,VWS V13.01,2013-06-09 18:28:00,
2013-06-09 13:33:00,58.3,44.0,0.00,ESE,115,3.6,4.5,59,0.00,,,0.04,VWS V13.01,2013-06-09 18:33:00,
2013-06-09 13:38:00,58.5,44.2,0.00,ESE,116,3.1,3.1,59,0.00,,,0.04,VWS V13.01,2013-06-09 18:38:00,
2013-06-09 13:43:00,58.3,44.0,0.00,ESE,117,3.6,3.6,59,0.00,,,0.04,VWS V13.01,2013-06-09 18:43:00,
2013-06-09 13:48:00,58.5,44.2,0.00,ESE,113,3.1,4.0,59,0.00,,,0.04,VWS V13.01,2013-06-09 18:48:00,
2013-06-09 13:53:00,58.5,44.2,0.00,ESE,116,2.2,4.0,59,0.00,,,0.04,VWS V13.01,2013-06-09 18:53:00,
2013-06-09 13:58:00,58.5,44.6,0.00,ESE,111,0.0,4.0,60,0.00,,,0.04,VWS V13.01,2013-06-09 18:58:00,
2013-06-09 14:03:00,58.3,44.5,0.00,ESE,114,0.0,0.0,60,0.00,,,0.04,VWS V13.01,2013-06-09 19:03:00,
2013-06-09 14:08:00,58.1,44.3,0.00,East,89,0.0,2.7,60,0.04,,,0.08,VWS V13.01,2013-06-09 19:08:00,
2013-06-09 14:13:00,57.9,44.1,0.00,East,89,0.0,0.0,60,0.04,,,0.08,VWS V13.01,2013-06-09 19:13:00,
2013-06-09 14:18:00,57.9,44.1,0.00,East,82,0.0,0.0,60,0.04,,,0.08,VWS V13.01,2013-06-09 19:18:00,
2013-06-09 14:23:00,57.7,44.4,0.00,ESE,109,0.0,0.0,61,0.04,,,0.08,VWS V13.01,2013-06-09 19:23:00,
2013-06-09 14:28:00,57.7,44.4,0.00,ESE,112,0.0,0.0,61,0.04,,,0.08,VWS V13.01,2013-06-09 19:28:00,
2013-06-09 14:33:00,57.6,44.2,0.00,NE,49,0.0,0.0,61,0.04,,,0.08,VWS V13.01,2013-06-09 19:33:00,
2013-06-09 14:38:00,57.6,44.7,0.00,NE,46,0.0,0.0,62,0.04,,,0.08,VWS V13.01,2013-06-09 19:38:00,
2013-06-09 14:43:00,57.7,45.2,0.00,East,85,0.0,0.0,63,0.04,,,0.08,VWS V13.01,2013-06-09 19:43:00,
2013-06-09 14:48:00,57.7,45.2,0.00,ESE,121,0.0,2.2,63,0.04,,,0.08,VWS V13.01,2013-06-09 19:48:00,
2013-06-09 14:53:00,57.9,45.8,0.00,ESE,120,2.7,2.7,64,0.08,,,0.12,VWS V13.01,2013-06-09 19:53:00,
2013-06-09 14:58:00,58.3,46.6,0.00,North,2,0.0,0.0,65,0.08,,,0.12,VWS V13.01,2013-06-09 19:58:00,
2013-06-09 15:03:00,58.5,47.2,0.00,ENE,57,0.0,0.0,66,0.08,,,0.12,VWS V13.01,2013-06-09 20:03:00,
2013-06-09 15:08:00,58.8,47.5,0.00,NNW,340,0.0,0.0,66,0.04,,,0.12,VWS V13.01,2013-06-09 20:08:00,
2013-06-09 15:13:00,59.2,47.8,0.00,ENE,65,0.0,0.0,66,0.04,,,0.12,VWS V13.01,2013-06-09 20:13:00,
2013-06-09 15:18:00,59.5,48.6,0.00,South,191,0.0,0.0,67,0.04,,,0.12,VWS V13.01,2013-06-09 20:18:00,
2013-06-09 15:23:00,59.7,48.8,0.00,ESE,110,0.0,0.0,67,0.04,,,0.12,VWS V13.01,2013-06-09 20:23:00,
2013-06-09 15:28:00,59.9,48.9,0.00,NE,41,0.0,0.0,67,0.04,,,0.12,VWS V13.01,2013-06-09 20:28:00,
2013-06-09 15:33:00,59.9,48.5,0.00,ESE,114,0.0,0.0,66,0.04,,,0.12,VWS V13.01,2013-06-09 20:33:00,
2013-06-09 15:38:00,60.1,48.7,0.00,ENE,64,0.0,0.0,66,0.04,,,0.12,VWS V13.01,2013-06-09 20:38:00,
2013-06-09 15:43:00,60.3,48.9,0.00,East,94,0.0,0.0,66,0.04,,,0.12,VWS V13.01,2013-06-09 20:43:00,
2013-06-09 15:48:00,60.6,49.6,0.00,ENE,62,0.0,0.0,67,0.04,,,0.12,VWS V13.01,2013-06-09 20:48:00,
2013-06-09 15:53:00,60.8,49.4,0.00,ESE,112,0.0,0.0,66,0.00,,,0.12,VWS V13.01,2013-06-09 20:53:00,
2013-06-09 15:58:00,61.2,49.7,0.00,ESE,106,0.0,0.0,66,0.00,,,0.12,VWS V13.01,2013-06-09 20:58:00,
2013-06-09 16:03:00,61.5,50.1,0.00,ESE,114,0.0,2.2,66,0.00,,,0.12,VWS V13.01,2013-06-09 21:03:00,
2013-06-09 16:08:00,61.7,50.2,0.00,ESE,113,0.0,0.0,66,0.00,,,0.12,VWS V13.01,2013-06-09 21:08:00,
2013-06-09 16:13:00,61.7,50.2,0.00,ESE,113,0.0,0.0,66,0.00,,,0.12,VWS V13.01,2013-06-09 21:13:00,
2013-06-09 16:18:00,62.1,50.6,0.00,NNE,24,0.0,0.0,66,0.00,,,0.12,VWS V13.01,2013-06-09 21:18:00,
2013-06-09 16:23:00,62.4,50.9,0.00,ESE,102,0.0,3.1,66,0.00,,,0.12,VWS V13.01,2013-06-09 21:23:00,
2013-06-09 16:28:00,62.8,50.8,0.00,ESE,114,0.0,0.0,65,0.00,,,0.12,VWS V13.01,2013-06-09 21:28:00,
2013-06-09 16:33:00,63.1,51.2,0.00,SE,126,0.0,2.7,65,0.00,,,0.12,VWS V13.01,2013-06-09 21:33:00,
2013-06-09 16:38:00,63.5,51.1,0.00,ESE,115,0.0,0.0,64,0.00,,,0.12,VWS V13.01,2013-06-09 21:38:00,
2013-06-09 16:43:00,63.9,51.0,0.00,SSE,164,3.6,3.6,63,0.00,,,0.12,VWS V13.01,2013-06-09 21:43:00,
2013-06-09 16:47:00,64.2,50.9,0.00,ESE,111,0.0,5.8,62,0.00,,,0.12,VWS V13.01,2013-06-09 21:47:00,
2013-06-09 16:53:00,64.4,49.8,0.00,ESE,111,0.0,0.0,59,0.00,,,0.12,VWS V13.01,2013-06-09 21:53:00,
2013-06-09 16:58:00,64.6,49.5,0.00,ESE,111,2.7,3.1,58,0.00,,,0.12,VWS V13.01,2013-06-09 21:58:00,
2013-06-09 17:03:00,64.9,49.4,0.00,ESE,117,0.0,0.0,57,0.00,,,0.12,VWS V13.01,2013-06-09 22:03:00,
2013-06-09 17:08:00,65.1,49.0,0.00,ESE,111,0.0,3.6,56,0.00,,,0.12,VWS V13.01,2013-06-09 22:08:00,
2013-06-09 17:13:00,65.3,48.2,0.00,ESE,108,0.0,2.7,54,0.00,,,0.12,VWS V13.01,2013-06-09 22:13:00,
2013-06-09 17:18:00,65.5,48.4,0.00,ESE,106,3.1,3.6,54,0.00,,,0.12,VWS V13.01,2013-06-09 22:18:00,
2013-06-09 17:23:00,65.7,47.6,0.00,ESE,109,3.6,3.6,52,0.00,,,0.12,VWS V13.01,2013-06-09 22:23:00,
2013-06-09 17:28:00,65.8,47.2,0.00,ESE,109,0.0,2.2,51,0.00,,,0.12,VWS V13.01,2013-06-09 22:28:00,
2013-06-09 17:33:00,65.8,47.2,0.00,ESE,120,2.2,2.2,51,0.00,,,0.12,VWS V13.01,2013-06-09 22:33:00,
2013-06-09 17:38:00,65.8,47.2,0.00,ESE,116,0.0,3.1,51,0.00,,,0.12,VWS V13.01,2013-06-09 22:38:00,
2013-06-09 17:43:00,66.0,47.9,0.00,ESE,111,2.7,3.1,52,0.00,,,0.12,VWS V13.01,2013-06-09 22:43:00,
2013-06-09 17:48:00,66.0,47.9,0.00,ESE,108,2.7,4.0,52,0.00,,,0.12,VWS V13.01,2013-06-09 22:48:00,
2013-06-09 17:53:00,66.0,47.9,0.00,ESE,108,3.6,3.6,52,0.00,,,0.12,VWS V13.01,2013-06-09 22:53:00,
2013-06-09 17:58:00,66.0,47.9,0.00,ESE,110,2.2,3.1,52,0.00,,,0.12,VWS V13.01,2013-06-09 22:58:00,
2013-06-09 18:03:00,65.8,47.7,0.00,ESE,103,3.6,4.0,52,0.00,,,0.12,VWS V13.01,2013-06-09 23:03:00,
2013-06-09 18:08:00,66.0,47.9,0.00,ESE,111,2.2,2.7,52,0.00,,,0.12,VWS V13.01,2013-06-09 23:08:00,
2013-06-09 18:13:00,65.8,47.7,0.00,ESE,104,2.2,2.7,52,0.00,,,0.12,VWS V13.01,2013-06-09 23:13:00,
2013-06-09 18:18:00,65.8,48.2,0.00,ESE,112,3.6,4.9,53,0.00,,,0.12,VWS V13.01,2013-06-09 23:18:00,
2013-06-09 18:23:00,65.8,48.2,0.00,ESE,113,4.0,4.9,53,0.00,,,0.12,VWS V13.01,2013-06-09 23:23:00,
2013-06-09 18:28:00,65.7,49.1,0.00,ESE,114,4.9,4.9,55,0.00,,,0.12,VWS V13.01,2013-06-09 23:28:00,
2013-06-09 18:33:00,65.7,49.1,0.00,ESE,103,3.6,4.0,55,0.00,,,0.12,VWS V13.01,2013-06-09 23:33:00,
2013-06-09 18:38:00,65.7,49.1,0.00,ESE,108,6.3,6.3,55,0.00,,,0.12,VWS V13.01,2013-06-09 23:38:00,
2013-06-09 18:43:00,65.8,48.8,0.00,SE,143,12.8,12.8,54,0.00,,,0.12,VWS V13.01,2013-06-09 23:43:00,
2013-06-09 18:48:00,66.0,48.9,0.00,ESE,105,7.2,10.1,54,0.00,,,0.12,VWS V13.01,2013-06-09 23:48:00,
2013-06-09 18:53:00,66.0,49.4,0.00,ESE,108,6.3,7.6,55,0.00,,,0.12,VWS V13.01,2013-06-09 23:53:00,
2013-06-09 18:58:00,65.7,49.1,0.00,ESE,108,10.1,11.4,55,0.00,,,0.12,VWS V13.01,2013-06-09 23:58:00,
2013-06-09 19:03:00,65.5,49.9,0.00,ESE,106,6.3,10.5,57,0.00,,,0.12,VWS V13.01,2013-06-10 00:03:00,
2013-06-09 19:08:00,65.3,50.2,0.00,East,87,7.6,10.1,58,0.00,,,0.12,VWS V13.01,2013-06-10 00:08:00,
2013-06-09 19:13:00,65.3,50.6,0.00,SE,128,11.0,11.0,59,0.00,,,0.12,VWS V13.01,2013-06-10 00:13:00,
2013-06-09 19:18:00,65.3,50.6,0.00,SE,128,7.6,8.7,59,0.00,,,0.12,VWS V13.01,2013-06-10 00:18:00,
2013-06-09 19:23:00,65.3,51.1,0.00,ESE,113,4.9,8.7,60,0.00,,,0.12,VWS V13.01,2013-06-10 00:23:00,
2013-06-09 19:28:00,65.1,51.3,0.00,ESE,119,5.4,7.6,61,0.00,,,0.12,VWS V13.01,2013-06-10 00:28:00,
2013-06-09 19:33:00,65.1,51.3,0.00,SE,137,7.6,8.1,61,0.00,,,0.12,VWS V13.01,2013-06-10 00:33:00,
2013-06-09 19:38:00,65.1,51.3,0.00,SE,126,5.8,8.3,61,0.00,,,0.12,VWS V13.01,2013-06-10 00:38:00,
2013-06-09 19:43:00,65.3,52.0,0.00,ESE,111,5.4,8.1,62,0.00,,,0.12,VWS V13.01,2013-06-10 00:43:00,
2013-06-09 19:48:00,65.1,51.8,0.00,SE,143,10.1,10.1,62,0.00,,,0.12,VWS V13.01,2013-06-10 00:48:00,
2013-06-09 19:53:00,65.1,51.8,0.00,ESE,114,7.6,7.6,62,0.00,,,0.12,VWS V13.01,2013-06-10 00:53:00,
2013-06-09 19:58:00,65.1,51.3,0.00,ESE,112,8.1,8.7,61,0.00,,,0.12,VWS V13.01,2013-06-10 00:58:00,
2013-06-09 20:03:00,65.1,51.8,0.00,ESE,114,6.3,6.3,62,0.00,,,0.12,VWS V13.01,2013-06-10 01:03:00,
2013-06-09 20:08:00,65.1,52.2,0.00,SE,140,8.3,8.7,63,0.00,,,0.12,VWS V13.01,2013-06-10 01:08:00,
2013-06-09 20:13:00,64.9,52.5,0.00,SE,144,8.7,10.5,64,0.00,,,0.12,VWS V13.01,2013-06-10 01:13:00,
2013-06-09 20:18:00,64.9,52.5,0.00,ESE,118,4.0,8.1,64,0.00,,,0.12,VWS V13.01,2013-06-10 01:18:00,
2013-06-09 20:23:00,64.9,52.5,0.00,ESE,119,5.8,7.6,64,0.00,,,0.12,VWS V13.01,2013-06-10 01:23:00,
2013-06-09 20:28:00,64.8,51.9,0.00,ESE,118,8.1,8.7,63,0.00,,,0.12,VWS V13.01,2013-06-10 01:28:00,
2013-06-09 20:33:00,64.8,52.3,0.00,ESE,109,3.6,6.3,64,0.00,,,0.12,VWS V13.01,2013-06-10 01:33:00,
2013-06-09 20:38:00,64.8,52.3,0.00,ESE,118,8.3,8.3,64,0.00,,,0.12,VWS V13.01,2013-06-10 01:38:00,
2013-06-09 20:43:00,64.8,52.3,0.00,SE,132,5.4,6.3,64,0.00,,,0.12,VWS V13.01,2013-06-10 01:43:00,
2013-06-09 20:48:00,64.6,52.1,0.00,ESE,110,6.3,6.3,64,0.00,,,0.12,VWS V13.01,2013-06-10 01:48:00,
2013-06-09 20:53:00,64.6,51.7,0.00,ESE,114,5.4,8.1,63,0.00,,,0.12,VWS V13.01,2013-06-10 01:53:00,
2013-06-09 20:58:00,64.6,51.3,0.00,SE,125,6.3,6.3,62,0.00,,,0.12,VWS V13.01,2013-06-10 01:58:00,
2013-06-09 21:03:00,64.6,50.8,0.00,ESE,114,5.4,6.7,61,0.00,,,0.12,VWS V13.01,2013-06-10 02:03:00,
2013-06-09 21:08:00,64.6,50.8,0.00,ESE,119,4.0,8.7,61,0.00,,,0.12,VWS V13.01,2013-06-10 02:08:00,
2013-06-09 21:13:00,64.6,50.8,0.00,ESE,109,6.3,7.6,61,0.00,,,0.12,VWS V13.01,2013-06-10 02:13:00,
2013-06-09 21:18:00,64.4,50.2,0.00,ESE,113,7.6,7.6,60,0.00,,,0.12,VWS V13.01,2013-06-10 02:18:00,
2013-06-09 21:23:00,64.2,50.5,0.00,ESE,116,3.6,5.4,61,0.00,,,0.12,VWS V13.01,2013-06-10 02:23:00,
2013-06-09 21:28:00,64.2,50.5,0.00,ESE,105,5.4,5.8,61,0.00,,,0.12,VWS V13.01,2013-06-10 02:28:00,
2013-06-09 21:33:00,64.0,51.2,0.00,ESE,120,6.3,6.3,63,0.00,,,0.12,VWS V13.01,2013-06-10 02:33:00,
2013-06-09 21:38:00,63.9,51.5,0.00,ESE,112,3.6,4.9,64,0.00,,,0.12,VWS V13.01,2013-06-10 02:38:00,
2013-06-09 21:43:00,63.9,51.5,0.00,ESE,112,4.9,5.8,64,0.00,,,0.12,VWS V13.01,2013-06-10 02:43:00,
2013-06-09 21:48:00,63.7,51.7,0.00,ESE,112,3.6,4.9,65,0.00,,,0.12,VWS V13.01,2013-06-10 02:48:00,
2013-06-09 21:53:00,63.7,52.1,0.00,ESE,109,4.0,5.8,66,0.00,,,0.12,VWS V13.01,2013-06-10 02:53:00,
2013-06-09 21:58:00,63.5,52.0,0.00,ESE,107,7.2,7.6,66,0.00,,,0.12,VWS V13.01,2013-06-10 02:58:00,
2013-06-09 22:03:00,63.5,52.4,0.00,ESE,107,5.8,5.8,67,0.00,,,0.12,VWS V13.01,2013-06-10 03:03:00,
2013-06-09 22:08:00,63.5,52.4,0.00,ESE,115,8.1,8.1,67,0.00,,,0.12,VWS V13.01,2013-06-10 03:08:00,
2013-06-09 22:13:00,63.5,52.4,0.00,SE,144,8.1,9.6,67,0.00,,,0.12,VWS V13.01,2013-06-10 03:13:00,
2013-06-09 22:18:00,63.5,52.4,0.00,ESE,110,8.3,8.3,67,0.00,,,0.12,VWS V13.01,2013-06-10 03:18:00,
2013-06-09 22:23:00,63.5,52.4,0.00,SE,125,10.5,11.9,67,0.00,,,0.12,VWS V13.01,2013-06-10 03:23:00,
2013-06-09 22:28:00,63.5,52.4,0.00,ESE,111,10.5,12.8,67,0.00,,,0.12,VWS V13.01,2013-06-10 03:28:00,
2013-06-09 22:33:00,63.5,52.0,0.00,SE,128,8.7,12.8,66,0.00,,,0.12,VWS V13.01,2013-06-10 03:33:00,
2013-06-09 22:38:00,63.7,52.1,0.00,SE,125,12.3,13.2,66,0.00,,,0.12,VWS V13.01,2013-06-10 03:38:00,
2013-06-09 22:43:00,63.7,51.7,0.00,SE,124,10.5,10.5,65,0.00,,,0.12,VWS V13.01,2013-06-10 03:43:00,
2013-06-09 22:48:00,63.9,51.9,0.00,SE,136,10.5,10.5,65,0.00,,,0.12,VWS V13.01,2013-06-10 03:48:00,
2013-06-09 22:53:00,63.9,51.5,0.00,ESE,116,11.0,11.0,64,0.00,,,0.12,VWS V13.01,2013-06-10 03:53:00,
2013-06-09 22:58:00,63.9,51.0,0.00,SE,126,8.1,10.1,63,0.00,,,0.12,VWS V13.01,2013-06-10 03:58:00,
2013-06-09 23:01:00,63.9,51.0,0.00,ESE,120,10.5,10.5,63,0.00,,,0.12,VWS V13.01,2013-06-10 04:01:00,
2013-06-09 23:06:00,64.0,51.2,0.00,SE,129,8.7,10.5,63,0.00,,,0.12,VWS V13.01,2013-06-10 04:06:00,
2013-06-09 23:11:00,64.0,49.9,0.00,SE,125,10.5,10.5,60,0.00,,,0.12,VWS V13.01,2013-06-10 04:11:00,
2013-06-09 23:16:00,64.0,49.4,0.00,ESE,121,12.8,13.6,59,0.00,,,0.12,VWS V13.01,2013-06-10 04:16:00,
2013-06-09 23:21:00,64.2,48.7,0.00,ESE,123,15.4,15.4,57,0.00,,,0.12,VWS V13.01,2013-06-10 04:21:00,
2013-06-09 23:26:00,64.2,48.7,0.00,SE,139,15.0,15.0,57,0.00,,,0.12,VWS V13.01,2013-06-10 04:26:00,
2013-06-09 23:31:00,64.4,48.8,0.00,ESE,112,11.0,11.0,57,0.00,,,0.12,VWS V13.01,2013-06-10 04:31:00,
2013-06-09 23:36:00,64.4,48.8,0.00,SE,124,8.7,10.1,57,0.00,,,0.12,VWS V13.01,2013-06-10 04:36:00,
2013-06-09 23:41:00,64.4,49.3,0.00,SE,145,12.3,12.3,58,0.00,,,0.12,VWS V13.01,2013-06-10 04:41:00,
2013-06-09 23:46:00,64.2,50.1,0.00,ESE,118,7.2,8.7,60,0.00,,,0.12,VWS V13.01,2013-06-10 04:46:00,
2013-06-09 23:51:00,64.0,51.2,0.00,SE,125,8.3,8.3,63,0.00,,,0.12,VWS V13.01,2013-06-10 04:51:00,
2013-06-09 23:56:00,63.9,51.5,0.00,SE,125,8.7,8.7,64,0.00,,,0.12,VWS V13.01,2013-06-10 04:56:00,